Time;durP1;ratioP1;P1;durP2;ratioP2;P2;SDS_P1;SDS_P2;PMS_P1;PMS_P2;Temp;Humidity;BMP_temperature;BMP_pressure;BME280_temperature;BME280_humidity;BME280_pressure;Samples;Min_cycle;Max_cycle;Signal;HPM_P1;HPM_P2
2021/07/29 10:17:41;;;;;;;;;;;;;;;32.19;43.69;98405.92;1856221;77;20099;-65
2021/07/29 10:20:18;;;;;;;;;;;;;;;32.15;43.29;98397.81;1892733;76;20215;-63
2021/07/29 10:23:17;;;;;;;;;;;;;;;32.14;43.17;98400.64;1892726;76;20346;-64
2021/07/29 10:26:03;;;;;;;;;;;;;;;32.12;43.10;98403.43;1873459;76;20097;-64
2021/07/29 10:29:24;;;;;;;;;;;;;;;32.15;43.19;98395.14;1873317;76;20101;-64
2021/07/29 10:32:08;;;;;;;;;;;;;;;32.09;43.75;98391.69;1892871;76;20100;-62
2021/07/29 10:34:40;;;;;;;;;;;;;;;32.06;43.85;98389.75;1873234;76;20102;-61
2021/07/29 10:37:43;;;;;;;;;;;;;;;32.05;43.61;98387.58;1873445;76;20216;-63
2021/07/29 10:43:31;;;;;;;;;;;;;;;31.98;43.82;98376.61;1892611;76;20501;-61
2021/07/29 10:46:14;;;;;;;;;;;;;;;31.90;44.14;98374.20;1892731;76;20446;-64
2021/07/29 10:49:13;;;;;;;;;;;;;;;31.89;44.20;98372.52;1873584;76;20344;-60
2021/07/29 10:52:08;;;;;;;;;;;;;;;31.92;43.86;98365.58;1873426;76;20212;-63
2021/07/29 10:55:02;;;;;;;;;;;;;;;31.92;43.79;98364.24;1873367;76;20216;-62
2021/07/29 10:57:39;;;;;;;;;;;;;;;31.98;43.49;98371.73;1892804;76;20100;-64
2021/07/29 11:00:15;;;;;;;;;;;;;;;32.11;43.36;98372.38;1892724;76;20351;-64
2021/07/29 11:02:52;;;;;;;;;;;;;;;32.09;43.31;98370.33;1892774;76;20207;-64
2021/07/29 11:05:34;;;;;;;;;;;;;;;32.09;42.98;98369.00;1873397;76;20097;-62
2021/07/29 11:08:07;;;;;;;;;;;;;;;32.03;42.98;98368.17;1873326;76;20097;-63
2021/07/29 11:11:04;;;;;;;;;;;;;;;31.96;43.30;98363.05;1873408;76;20465;-64
2021/07/29 11:13:41;;;;;;;;;;;;;;;32.05;43.08;98362.22;1892772;76;20101;-62
2021/07/29 11:16:16;;;;;;;;;;;;;;;32.16;42.77;98356.81;1892713;76;20101;-64
2021/07/29 11:18:59;;;;;;;;;;;;;;;32.20;42.62;98354.70;1873313;76;20144;-62
2021/07/29 11:21:35;;;;;;;;;;;;;;;32.27;42.13;98349.67;1873280;76;20101;-63
2021/07/29 11:24:25;;;;;;;;;;;;;;;32.32;42.13;98348.78;1873504;76;20340;-63
2021/07/29 11:27:00;;;;;;;;;;;;;;;32.44;41.72;98341.02;1892788;76;20207;-64
2021/07/29 11:29:35;;;;;;;;;;;;;;;32.46;41.43;98340.86;1873322;76;20094;-63
2021/07/29 11:32:41;;;;;;;;;;;;;;;32.39;41.64;98341.42;1892746;76;20215;-62
2021/07/29 11:35:20;;;;;;;;;;;;;;;32.28;41.64;98336.67;1873326;76;20455;-64
2021/07/29 11:38:21;;;;;;;;;;;;;;;32.20;42.17;98342.19;1892755;76;20466;-63
2021/07/29 11:41:03;;;;;;;;;;;;;;;32.40;42.00;98330.23;1872621;76;20204;-62
2021/07/29 11:43:37;;;;;;;;;;;;;;;32.42;41.78;98320.27;1892763;76;20211;-62
2021/07/29 11:46:12;;;;;;;;;;;;;;;32.29;41.93;98311.17;1873454;76;20212;-62
2021/07/29 11:48:47;;;;;;;;;;;;;;;32.28;42.17;98308.63;1892737;76;20212;-63
2021/07/29 11:51:22;;;;;;;;;;;;;;;32.40;41.92;98300.36;1873287;76;20340;-64
2021/07/29 11:53:57;;;;;;;;;;;;;;;32.50;42.02;98311.10;1873371;76;20094;-65
2021/07/29 11:56:42;;;;;;;;;;;;;;;32.56;41.71;98306.53;1892672;76;20124;-64
2021/07/29 11:59:17;;;;;;;;;;;;;;;32.62;41.71;98297.98;1837835;77;20099;-66
2021/07/29 12:02:11;;;;;;;;;;;;;;;32.74;41.49;98294.66;1873389;76;20212;-61
2021/07/29 12:04:46;;;;;;;;;;;;;;;32.92;39.83;98299.31;1853590;77;20099;-65
2021/07/29 12:07:40;;;;;;;;;;;;;;;33.10;39.85;98282.09;1873424;76;20263;-63
2021/07/29 12:10:19;;;;;;;;;;;;;;;33.13;39.15;98283.14;1873389;76;20102;-64
2021/07/29 12:13:14;;;;;;;;;;;;;;;33.29;38.04;98288.76;1873698;76;20454;-66
2021/07/29 12:16:07;;;;;;;;;;;;;;;33.46;38.30;98282.67;1873418;76;20212;-65
2021/07/29 12:18:42;;;;;;;;;;;;;;;33.50;38.69;98282.71;1873380;76;20097;-61
2021/07/29 12:21:20;;;;;;;;;;;;;;;33.49;38.88;98278.36;1873446;76;20208;-61
2021/07/29 12:23:55;;;;;;;;;;;;;;;33.25;39.50;98275.31;1892720;76;20358;-63
2021/07/29 12:27:08;;;;;;;;;;;;;;;33.08;40.27;98269.72;1873454;76;20216;-61
2021/07/29 12:29:44;;;;;;;;;;;;;;;33.04;40.76;98274.99;1892743;76;20208;-61
2021/07/29 12:32:40;;;;;;;;;;;;;;;33.19;40.68;98267.88;1873440;76;20213;-64
2021/07/29 12:35:36;;;;;;;;;;;;;;;33.22;40.15;98255.55;1873296;76;20177;-62
2021/07/29 12:38:11;;;;;;;;;;;;;;;33.23;39.69;98264.78;1873427;76;20208;-65
2021/07/29 12:40:52;;;;;;;;;;;;;;;33.34;39.21;98262.42;1892860;76;20117;-62
2021/07/29 12:43:28;;;;;;;;;;;;;;;33.61;39.05;98260.81;1837748;77;20100;-64
2021/07/29 12:46:06;;;;;;;;;;;;;;;33.84;38.71;98250.57;1892750;76;20212;-66
2021/07/29 12:48:59;;;;;;;;;;;;;;;34.01;38.42;98249.78;1853232;76;20233;-64
2021/07/29 12:51:51;;;;;;;;;;;;;;;34.10;38.50;98242.73;1858385;76;20226;-61
2021/07/29 12:54:26;;;;;;;;;;;;;;;34.20;38.24;98240.00;1859370;76;20227;-64
2021/07/29 12:57:20;;;;;;;;;;;;;;;34.12;38.16;98226.86;1851936;76;20408;-62
2021/07/29 12:59:55;;;;;;;;;;;;;;;33.91;38.45;98228.41;1850370;76;20222;-62
2021/07/29 13:02:30;;;;;;;;;;;;;;;33.73;38.66;98220.33;1857716;76;20378;-64
2021/07/29 13:05:24;;;;;;;;;;;;;;;33.51;38.89;98209.50;1858444;75;20137;-62
2021/07/29 13:08:06;;;;;;;;;;;;;;;33.27;39.32;98216.68;1864465;76;20383;-66
2021/07/29 13:10:41;;;;;;;;;;;;;;;33.18;39.52;98207.34;1856607;76;20173;-68
2021/07/29 13:13:25;;;;;;;;;;;;;;;33.18;39.57;98211.35;1860555;76;20122;-64
2021/07/29 13:16:00;;;;;;;;;;;;;;;33.28;39.32;98209.52;1867703;76;20119;-62
2021/07/29 13:18:34;;;;;;;;;;;;;;;33.45;39.28;98206.56;1853840;76;20117;-62
2021/07/29 13:21:35;;;;;;;;;;;;;;;33.67;38.94;98196.02;1852661;76;20163;-64
2021/07/29 13:24:17;;;;;;;;;;;;;;;33.63;38.93;98203.48;1867764;76;20176;-61
2021/07/29 13:27:16;;;;;;;;;;;;;;;33.50;39.17;98193.59;1862156;76;20466;-64
2021/07/29 13:29:50;;;;;;;;;;;;;;;33.31;39.51;98203.88;1857255;76;20172;-64
2021/07/29 13:32:28;;;;;;;;;;;;;;;33.41;39.70;98206.02;1883453;76;20382;-64
2021/07/29 13:35:05;;;;;;;;;;;;;;;33.47;39.63;98196.06;1845198;76;20151;-63
2021/07/29 13:37:48;;;;;;;;;;;;;;;33.37;39.63;98211.30;1892411;76;20208;-63
2021/07/29 13:40:25;;;;;;;;;;;;;;;33.42;39.89;98211.71;1837750;76;20170;-63
2021/07/29 13:43:01;;;;;;;;;;;;;;;33.64;39.45;98208.36;1867101;76;20274;-64
2021/07/29 13:45:56;;;;;;;;;;;;;;;33.60;39.42;98200.27;1866037;76;20221;-62
2021/07/29 13:48:37;;;;;;;;;;;;;;;33.45;39.72;98207.90;1852150;76;20119;-65
2021/07/29 13:51:18;;;;;;;;;;;;;;;33.28;40.14;98209.52;1859137;76;20390;-64
2021/07/29 13:53:54;;;;;;;;;;;;;;;32.95;41.00;98201.45;1892268;76;20096;-64
2021/07/29 13:56:35;;;;;;;;;;;;;;;32.80;41.46;98221.12;1858454;76;20477;-63
2021/07/29 13:59:30;;;;;;;;;;;;;;;32.85;41.68;98221.05;1860599;76;20118;-63
2021/07/29 14:02:28;;;;;;;;;;;;;;;32.92;41.45;98213.27;1853561;76;20120;-62
2021/07/29 14:05:05;;;;;;;;;;;;;;;32.95;41.64;98208.14;1861845;76;20121;-64
2021/07/29 14:07:47;;;;;;;;;;;;;;;32.89;41.72;98209.56;1866514;76;20120;-62
2021/07/29 14:10:22;;;;;;;;;;;;;;;32.75;42.04;98200.67;1866472;76;20170;-64
2021/07/29 14:12:59;;;;;;;;;;;;;;;32.60;42.35;98197.08;1866976;76;20390;-63
2021/07/29 14:15:35;;;;;;;;;;;;;;;32.48;42.71;98190.19;1858072;76;20113;-60
2021/07/29 14:18:36;;;;;;;;;;;;;;;32.26;43.27;98174.41;1865479;76;20117;-62
2021/07/29 14:24:09;;;;;;;;;;;;;;;31.98;44.18;98168.42;1864216;76;20116;-63
2021/07/29 14:27:02;;;;;;;;;;;;;;;31.97;44.25;98156.54;1853917;76;20119;-61
2021/07/29 14:29:56;;;;;;;;;;;;;;;31.88;44.67;98154.66;1858768;76;20334;-61
2021/07/29 14:32:50;;;;;;;;;;;;;;;31.78;45.17;98151.50;1849392;76;20123;-62
2021/07/29 14:35:26;;;;;;;;;;;;;;;31.82;44.99;98147.21;1872667;76;20208;-65
2021/07/29 14:38:07;;;;;;;;;;;;;;;31.86;45.00;98131.30;1862421;76;20460;-63
2021/07/29 14:41:00;;;;;;;;;;;;;;;31.62;45.58;98140.98;1852554;76;20278;-60
2021/07/29 14:43:56;;;;;;;;;;;;;;;31.44;46.06;98128.30;1855156;76;20226;-64
2021/07/29 14:49:51;;;;;;;;;;;;;;;31.13;46.63;98116.78;1879177;75;20132;-64
2021/07/29 14:52:29;;;;;;;;;;;;;;;31.01;46.98;98112.52;1873124;76;20212;-60
2021/07/29 14:55:42;;;;;;;;;;;;;;;30.88;47.44;98110.91;1867235;76;20119;-65
2021/07/29 16:09:56;;;;;;;;;;;;;;;23.14;73.93;98239.73;1856471;76;20230;-65
2021/07/29 16:12:30;;;;;;;;;;;;;;;23.14;74.27;98243.22;1868321;76;20231;-66
2021/07/29 16:15:12;;;;;;;;;;;;;;;23.10;76.11;98221.95;1858208;76;20117;-66
2021/07/29 16:17:47;;;;;;;;;;;;;;;23.05;76.34;98230.55;1849411;76;20225;-63
2021/07/29 16:20:22;;;;;;;;;;;;;;;23.05;77.08;98221.34;1853749;76;20227;-65
2021/07/29 16:22:56;;;;;;;;;;;;;;;23.06;77.73;98224.34;1866801;76;20115;-64
2021/07/29 16:25:32;;;;;;;;;;;;;;;23.04;78.31;98207.77;1858501;76;20220;-64
2021/07/29 16:28:27;;;;;;;;;;;;;;;22.97;78.94;98203.75;1859231;76;20226;-64
2021/07/29 16:31:01;;;;;;;;;;;;;;;22.94;79.33;98198.62;1857399;76;20285;-65
2021/07/29 16:33:36;;;;;;;;;;;;;;;22.90;79.81;98195.78;1852953;76;20235;-65
2021/07/29 16:36:17;;;;;;;;;;;;;;;22.86;80.28;98198.17;1865491;76;20498;-65
2021/07/29 16:38:51;;;;;;;;;;;;;;;22.83;80.92;98199.66;1858189;76;20478;-65
2021/07/29 16:41:30;;;;;;;;;;;;;;;22.86;81.35;98208.70;1862262;76;20114;-65
2021/07/29 16:44:25;;;;;;;;;;;;;;;23.04;81.04;98225.35;1856583;76;20120;-65
2021/07/29 16:47:01;;;;;;;;;;;;;;;23.18;81.17;98243.45;1856697;76;20230;-66
2021/07/29 16:49:36;;;;;;;;;;;;;;;23.20;81.83;98257.83;1854984;76;20119;-63
2021/07/29 16:52:29;;;;;;;;;;;;;;;23.13;81.39;98273.11;1849826;76;20385;-66
2021/07/29 16:55:23;;;;;;;;;;;;;;;23.09;81.17;98289.98;1840434;76;20230;-67
2021/07/29 16:58:03;;;;;;;;;;;;;;;23.09;80.90;98294.39;1855078;76;20219;-65
2021/07/29 17:01:03;;;;;;;;;;;;;;;23.13;80.90;98303.38;1855386;76;20120;-64
2021/07/29 17:03:56;;;;;;;;;;;;;;;23.27;80.75;98292.61;1844946;76;20222;-67
2021/07/29 17:06:37;;;;;;;;;;;;;;;23.39;80.44;98299.88;1864641;76;20479;-64
2021/07/29 17:09:14;;;;;;;;;;;;;;;23.48;80.23;98302.01;1856958;76;20632;-66
2021/07/29 17:11:48;;;;;;;;;;;;;;;23.56;79.60;98294.58;1859674;76;20361;-65
2021/07/29 17:14:22;;;;;;;;;;;;;;;23.71;78.90;98299.95;1847738;76;20373;-66
2021/07/29 17:17:04;;;;;;;;;;;;;;;23.82;78.37;98302.91;1856965;76;20119;-65
2021/07/29 17:19:38;;;;;;;;;;;;;;;23.93;77.81;98300.54;1847046;76;20125;-65
2021/07/29 17:22:32;;;;;;;;;;;;;;;23.93;78.15;98305.81;1870766;76;20538;-64
2021/07/29 17:25:13;;;;;;;;;;;;;;;23.89;78.31;98301.66;1868070;76;20117;-64
2021/07/29 17:28:07;;;;;;;;;;;;;;;23.87;77.90;98298.25;1857446;76;20230;-64
2021/07/29 17:30:49;;;;;;;;;;;;;;;23.88;77.89;98295.98;1871348;75;20299;-64
2021/07/29 17:33:29;;;;;;;;;;;;;;;23.88;77.69;98302.57;1854364;76;20230;-63
2021/07/29 17:36:05;;;;;;;;;;;;;;;23.87;78.26;98296.93;1863307;76;20104;-64
2021/07/29 17:38:41;;;;;;;;;;;;;;;23.86;78.26;98295.21;1864432;76;20117;-67
2021/07/29 17:41:15;;;;;;;;;;;;;;;23.87;78.39;98296.09;1874070;76;20113;-63
2021/07/29 17:43:51;;;;;;;;;;;;;;;23.86;78.20;98295.21;1873265;76;20148;-64
2021/07/29 17:46:26;;;;;;;;;;;;;;;23.86;78.05;98299.64;1892680;76;20101;-65
2021/07/29 17:49:09;;;;;;;;;;;;;;;23.87;78.30;98298.25;1865792;76;20485;-48
2021/07/29 17:52:04;;;;;;;;;;;;;;;23.89;78.84;98291.12;1855831;76;20116;-47
2021/07/29 17:54:45;;;;;;;;;;;;;;;23.91;78.87;98290.54;1859808;76;20480;-47
2021/07/29 17:57:20;;;;;;;;;;;;;;;23.94;79.02;98303.58;1855153;76;20200;-50
2021/07/29 17:59:54;;;;;;;;;;;;;;;23.94;79.07;98306.66;1868648;76;20118;-46
2021/07/29 18:02:56;;;;;;;;;;;;;;;23.94;79.27;98302.70;1857764;76;20227;-50
2021/07/29 18:05:51;;;;;;;;;;;;;;;23.89;79.44;98297.70;1854375;76;20276;-50
2021/07/29 18:08:26;;;;;;;;;;;;;;;23.94;79.89;98292.16;1861680;76;20462;-47
2021/07/29 18:11:04;;;;;;;;;;;;;;;23.97;79.96;98286.75;1858407;76;20311;-50
2021/07/29 18:13:39;;;;;;;;;;;;;;;23.99;80.11;98286.17;1855579;76;20116;-50
2021/07/29 18:16:16;;;;;;;;;;;;;;;23.99;80.28;98289.69;1857165;76;20374;-51
2021/07/29 18:19:09;;;;;;;;;;;;;;;24.01;80.35;98296.17;1855524;76;20163;-48
2021/07/29 18:21:44;;;;;;;;;;;;;;;24.00;80.54;98297.95;1856734;76;20116;-47
2021/07/29 18:24:18;;;;;;;;;;;;;;;23.98;80.78;98293.23;1856282;76;20379;-46
2021/07/29 18:26:54;;;;;;;;;;;;;;;23.96;81.04;98291.61;1835756;76;20372;-49
2021/07/29 18:29:49;;;;;;;;;;;;;;;23.92;81.45;98304.13;1852784;76;20120;-50
2021/07/29 18:32:42;;;;;;;;;;;;;;;23.90;81.83;98298.08;1853922;76;20234;-51
2021/07/29 18:35:17;;;;;;;;;;;;;;;23.95;81.83;98292.09;1859318;76;20115;-50
2021/07/29 18:37:57;;;;;;;;;;;;;;;23.98;81.81;98286.64;1868563;76;20115;-49
2021/07/29 18:40:39;;;;;;;;;;;;;;;23.95;81.56;98296.04;1855979;76;20230;-49
2021/07/29 18:43:14;;;;;;;;;;;;;;;23.92;81.70;98297.53;1864981;76;20118;-47
2021/07/29 18:46:07;;;;;;;;;;;;;;;23.91;82.04;98308.98;1858155;76;20113;-47
2021/07/29 18:48:48;;;;;;;;;;;;;;;23.90;82.21;98319.16;1855553;76;20116;-47
2021/07/29 18:51:22;;;;;;;;;;;;;;;23.89;82.86;98325.81;1858145;76;20113;-50
2021/07/29 18:53:56;;;;;;;;;;;;;;;23.82;83.47;98327.95;1858044;76;20963;-50
2021/07/29 18:56:31;;;;;;;;;;;;;;;23.73;83.86;98333.69;1856334;76;20119;-49
2021/07/29 18:59:07;;;;;;;;;;;;;;;23.69;84.20;98338.25;1868128;76;20115;-50
2021/07/29 19:02:03;;;;;;;;;;;;;;;23.85;84.13;98338.32;1851044;76;20226;-46
2021/07/29 19:04:59;;;;;;;;;;;;;;;24.06;83.63;98331.03;1873386;76;20204;-50
2021/07/29 19:07:41;;;;;;;;;;;;;;;23.99;83.88;98333.61;1865172;76;20119;-48
2021/07/29 19:10:16;;;;;;;;;;;;;;;23.86;84.87;98332.58;1863480;76;20109;-50
2021/07/29 19:12:50;;;;;;;;;;;;;;;23.67;85.79;98330.89;1858267;76;20375;-50
2021/07/29 19:15:27;;;;;;;;;;;;;;;23.47;86.68;98334.56;1856492;76;20187;-48
2021/07/29 19:18:08;;;;;;;;;;;;;;;23.37;87.40;98346.02;1855638;76;20282;-47
2021/07/29 19:21:03;;;;;;;;;;;;;;;23.26;88.09;98352.78;1854234;76;20458;-51
2021/07/29 19:23:37;;;;;;;;;;;;;;;23.15;88.91;98342.77;1857882;76;20226;-48
2021/07/29 19:26:30;;;;;;;;;;;;;;;23.09;89.61;98343.93;1855452;76;20479;-49
2021/07/29 19:29:06;;;;;;;;;;;;;;;23.15;89.68;98344.09;1854722;76;20120;-47
2021/07/29 19:32:00;;;;;;;;;;;;;;;23.25;89.04;98343.16;1856289;76;20224;-49
2021/07/29 19:34:34;;;;;;;;;;;;;;;23.38;88.46;98341.60;1853215;76;20313;-48
2021/07/29 19:37:09;;;;;;;;;;;;;;;23.48;87.99;98336.72;1819852;77;20118;-50
2021/07/29 19:39:44;;;;;;;;;;;;;;;23.57;87.35;98339.73;1855787;76;20124;-50
2021/07/29 19:42:19;;;;;;;;;;;;;;;23.68;87.01;98345.75;1857580;76;20121;-52
2021/07/29 19:44:53;;;;;;;;;;;;;;;23.70;87.00;98350.95;1858843;76;20115;-50
2021/07/29 19:47:28;;;;;;;;;;;;;;;23.63;87.30;98355.67;1869828;76;20172;-49
2021/07/29 19:50:05;;;;;;;;;;;;;;;23.56;87.55;98349.89;1873101;76;20377;-48
2021/07/29 19:53:05;;;;;;;;;;;;;;;23.54;88.07;98364.92;1872688;76;20184;-49
2021/07/29 19:55:39;;;;;;;;;;;;;;;23.54;88.28;98366.23;1892908;76;20096;-49
2021/07/29 19:58:14;;;;;;;;;;;;;;;23.52;88.49;98368.56;1873368;76;20343;-52
2021/07/29 20:00:50;;;;;;;;;;;;;;;23.43;88.92;98367.23;1861875;76;20115;-50
2021/07/29 20:03:29;;;;;;;;;;;;;;;23.31;89.48;98363.94;1848734;76;20119;-49
2021/07/29 20:06:26;;;;;;;;;;;;;;;23.25;90.03;98369.48;1866831;76;20234;-49
2021/07/29 20:08:59;;;;;;;;;;;;;;;23.19;90.45;98366.23;1863477;76;20232;-49
2021/07/29 20:11:52;;;;;;;;;;;;;;;23.20;90.78;98369.72;1856250;76;20481;-65
2021/07/29 20:14:27;;;;;;;;;;;;;;;23.17;90.89;98361.98;1858313;76;20484;-63
2021/07/29 20:17:02;;;;;;;;;;;;;;;23.11;91.20;98364.45;1854753;76;20115;-63
2021/07/29 20:19:55;;;;;;;;;;;;;;;23.09;91.48;98361.05;1868584;76;20221;-63
2021/07/29 20:22:38;;;;;;;;;;;;;;;23.09;91.29;98370.25;1856211;76;20228;-62
2021/07/29 20:25:12;;;;;;;;;;;;;;;23.11;91.30;98372.82;1855618;76;20230;-63
2021/07/29 20:27:47;;;;;;;;;;;;;;;23.13;91.12;98373.61;1855792;76;20112;-62
2021/07/29 20:30:23;;;;;;;;;;;;;;;23.14;91.09;98382.72;1853513;76;20220;-65
2021/07/29 20:32:58;;;;;;;;;;;;;;;23.16;91.10;98394.03;1844306;76;20378;-64
2021/07/29 20:35:52;;;;;;;;;;;;;;;23.15;91.25;98393.66;1864719;75;20128;-64
2021/07/29 20:38:26;;;;;;;;;;;;;;;23.13;91.27;98396.83;1872159;76;20227;-65
2021/07/29 20:41:05;;;;;;;;;;;;;;;23.09;91.34;98396.58;1857857;76;20163;-63
2021/07/29 20:44:18;;;;;;;;;;;;;;;23.03;91.51;98395.57;1866105;76;20235;-63
2021/07/29 20:46:54;;;;;;;;;;;;;;;22.98;91.64;98398.89;1844909;76;20178;-63
2021/07/29 20:49:29;;;;;;;;;;;;;;;22.93;91.77;98404.81;1858072;76;20112;-66
2021/07/29 20:52:04;;;;;;;;;;;;;;;22.90;91.87;98411.07;1858785;76;20233;-65
2021/07/29 20:55:07;;;;;;;;;;;;;;;22.88;91.91;98412.91;1866929;76;20119;-63
2021/07/29 20:58:00;;;;;;;;;;;;;;;22.88;91.90;98416.02;1859350;76;20268;-63
2021/07/29 21:00:40;;;;;;;;;;;;;;;22.89;91.90;98415.08;1852047;76;20231;-63
2021/07/29 21:03:16;;;;;;;;;;;;;;;22.88;91.75;98416.86;1873260;76;20098;-65
2021/07/29 21:05:58;;;;;;;;;;;;;;;22.90;91.67;98419.44;1853587;77;20119;-64
2021/07/29 21:08:33;;;;;;;;;;;;;;;22.93;91.43;98420.12;1865299;76;20226;-64
2021/07/29 21:11:26;;;;;;;;;;;;;;;22.95;91.38;98414.34;1872536;76;20228;-63
2021/07/29 21:14:00;;;;;;;;;;;;;;;23.00;91.30;98410.20;1857945;76;20480;-64
2021/07/29 21:16:36;;;;;;;;;;;;;;;23.00;91.12;98406.25;1892176;76;20101;-64
2021/07/29 21:19:11;;;;;;;;;;;;;;;22.98;91.02;98409.42;1863125;76;20230;-63
2021/07/29 21:21:45;;;;;;;;;;;;;;;22.95;91.06;98409.55;1873423;76;20101;-64
2021/07/29 21:24:20;;;;;;;;;;;;;;;22.90;91.08;98412.39;1861229;76;20113;-62
2021/07/29 21:26:55;;;;;;;;;;;;;;;22.86;91.13;98422.66;1872988;76;20371;-63
2021/07/29 21:29:30;;;;;;;;;;;;;;;22.80;91.22;98409.81;1873428;76;20455;-63
2021/07/29 21:32:25;;;;;;;;;;;;;;;22.76;91.48;98411.71;1892881;76;20116;-62
2021/07/29 21:34:59;;;;;;;;;;;;;;;22.74;91.64;98413.59;1891108;76;20358;-63
2021/07/29 21:37:52;;;;;;;;;;;;;;;22.73;91.74;98409.23;1892740;76;20208;-62
2021/07/29 21:40:28;;;;;;;;;;;;;;;22.73;91.93;98405.29;1871656;76;20174;-65
2021/07/29 21:43:03;;;;;;;;;;;;;;;22.74;91.99;98407.45;1871974;76;20548;-64
2021/07/29 21:45:37;;;;;;;;;;;;;;;22.73;92.06;98410.55;1873258;76;20094;-63
2021/07/29 21:48:37;;;;;;;;;;;;;;;22.69;92.30;98411.61;1892735;76;20359;-65
2021/07/29 21:51:42;;;;;;;;;;;;;;;22.68;92.40;98411.23;1892837;76;20240;-63
2021/07/29 21:54:37;;;;;;;;;;;;;;;22.70;92.50;98412.02;1873136;76;20502;-64
2021/07/29 21:57:32;;;;;;;;;;;;;;;22.77;92.41;98412.59;1892805;76;20212;-63
2021/07/29 22:00:13;;;;;;;;;;;;;;;22.80;92.36;98414.22;1892795;76;20212;-65
2021/07/29 22:02:49;;;;;;;;;;;;;;;22.80;92.33;98414.22;1873272;76;20371;-63
2021/07/29 22:05:43;;;;;;;;;;;;;;;22.75;92.41;98419.70;1873319;76;20102;-64
2021/07/29 22:08:18;;;;;;;;;;;;;;;22.73;92.48;98419.76;1873455;76;20208;-64
2021/07/29 22:10:53;;;;;;;;;;;;;;;22.73;92.61;98418.91;1873425;76;20344;-64
2021/07/29 22:13:30;;;;;;;;;;;;;;;22.76;92.67;98424.02;1873398;76;20204;-63
2021/07/29 22:16:06;;;;;;;;;;;;;;;22.80;92.71;98425.59;1892743;76;20367;-64
2021/07/29 22:18:41;;;;;;;;;;;;;;;22.81;92.91;98428.60;1873276;76;20102;-62
2021/07/29 22:21:16;;;;;;;;;;;;;;;22.79;92.74;98429.59;1873458;76;20101;-63
2021/07/29 22:24:00;;;;;;;;;;;;;;;22.80;92.72;98430.02;1892830;76;20117;-64
2021/07/29 22:26:55;;;;;;;;;;;;;;;22.82;92.57;98432.95;1873295;76;20359;-64
2021/07/29 22:29:50;;;;;;;;;;;;;;;22.81;92.44;98431.70;1892756;76;20116;-63
2021/07/29 22:32:46;;;;;;;;;;;;;;;22.81;92.22;98431.70;1873203;76;20101;-65
2021/07/29 22:35:20;;;;;;;;;;;;;;;22.81;92.13;98436.97;1873578;76;20197;-65
2021/07/29 22:38:15;;;;;;;;;;;;;;;22.78;92.12;98431.85;1866351;75;20136;-64
2021/07/29 22:40:50;;;;;;;;;;;;;;;22.72;92.19;98435.16;1873574;76;20094;-64
2021/07/29 22:43:24;;;;;;;;;;;;;;;22.71;92.33;98434.75;1873496;76;20209;-64
2021/07/29 22:45:59;;;;;;;;;;;;;;;22.66;92.34;98427.54;1892914;76;20100;-64
2021/07/29 22:48:34;;;;;;;;;;;;;;;22.63;92.44;98423.75;1892792;76;20207;-64
2021/07/29 22:51:09;;;;;;;;;;;;;;;22.61;92.59;98424.27;1873430;76;20208;-64
2021/07/29 22:53:44;;;;;;;;;;;;;;;22.58;92.84;98423.58;1892801;76;20254;-62
2021/07/29 22:56:20;;;;;;;;;;;;;;;22.52;93.07;98422.94;1873211;76;20355;-62
2021/07/29 22:58:54;;;;;;;;;;;;;;;22.52;93.07;98418.99;1873462;76;20379;-62
2021/07/29 23:01:29;;;;;;;;;;;;;;;22.50;92.91;98419.98;1873462;76;20098;-63
2021/07/29 23:04:22;;;;;;;;;;;;;;;22.44;92.98;98413.24;1892771;76;20211;-63
2021/07/29 23:06:57;;;;;;;;;;;;;;;22.40;93.08;98409.50;1873467;76;20200;-63
2021/07/29 23:09:33;;;;;;;;;;;;;;;22.34;93.28;98405.39;1873325;76;20102;-63
2021/07/29 23:12:07;;;;;;;;;;;;;;;22.31;93.36;98402.44;1892807;76;20449;-64
2021/07/29 23:14:55;;;;;;;;;;;;;;;22.27;93.55;98405.27;1892762;76;20493;-64
2021/07/29 23:17:43;;;;;;;;;;;;;;;22.24;93.75;98399.69;1889407;76;20461;-62
2021/07/29 23:20:38;;;;;;;;;;;;;;;22.21;93.95;98395.89;1873386;76;20102;-61
2021/07/29 23:23:44;;;;;;;;;;;;;;;22.20;94.29;98399.42;1892735;76;20097;-64
2021/07/29 23:29:43;;;;;;;;;;;;;;;22.14;94.60;98396.20;1872758;76;20351;-63
2021/07/29 23:32:36;;;;;;;;;;;;;;;22.10;94.50;98396.79;1873543;76;20216;-62
2021/07/29 23:35:32;;;;;;;;;;;;;;;22.08;94.54;98397.31;1873238;76;20102;-63
2021/07/29 23:38:16;;;;;;;;;;;;;;;22.05;94.45;98390.42;1892877;76;20100;-62
2021/07/29 23:41:10;;;;;;;;;;;;;;;22.00;94.53;98390.24;1873458;76;20101;-63
2021/07/29 23:44:05;;;;;;;;;;;;;;;21.94;94.53;98384.81;1873236;76;20102;-62
2021/07/29 23:46:59;;;;;;;;;;;;;;;21.87;94.83;98381.59;1892754;76;20354;-61
2021/07/29 23:49:33;;;;;;;;;;;;;;;21.82;94.98;98382.25;1892832;76;20211;-63
2021/07/29 23:52:29;;;;;;;;;;;;;;;21.83;94.82;98384.41;1873286;76;20101;-62
2021/07/29 23:55:04;;;;;;;;;;;;;;;21.81;94.88;98377.93;1873459;76;20213;-63
2021/07/29 23:57:39;;;;;;;;;;;;;;;21.77;94.75;98373.72;1873537;76;20101;-65
